EW4360 Weather Reports


Display with metric or nautical units.
time (UTC)temp
F
wind
direction
speed
MPH
gust
MPH
rain 1hr
in
rain 24hr
in
rain mn
in
humidity
%
barometer
mb
20190420121658 41 347 0.0 3.0 0.00 0.00 0.00 78 1009.7
20190420120147 40 17 0.0 0.0 0.00 0.00 0.00 79 1009.6
20190420114622 40 288 0.0 2.0 0.00 0.00 0.00 79 1009.4
20190420113145 42 121 0.0 0.0 0.00 0.00 0.00 75 1009.6
20190420111600 42 338 0.0 2.0 0.00 0.00 0.00 72 1009.7
20190420110136 43 13 0.0 3.0 0.00 0.00 0.00 67 1009.6
20190420104629 43 95 0.0 0.0 0.00 0.00 0.00 70 1009.7
20190420103137 46 281 0.0 3.0 0.00 0.00 0.00 61 1010.0
20190420101550 45 333 0.0 1.0 0.00 0.00 0.00 63 1009.8
20190420100117 44 331 0.0 1.0 0.00 0.00 0.00 63 1009.8
20190420094623 46 318 0.0 4.0 0.00 0.00 0.00 58 1009.9
20190420093112 44 334 0.0 1.0 0.00 0.00 0.00 64 1009.9
20190420091606 45 310 0.0 1.0 0.00 0.00 0.00 62 1010.0
20190420090053 46 275 0.0 2.0 0.00 0.00 0.00 62 1010.2
20190420084541 46 322 0.0 0.0 0.00 0.00 0.00 62 1010.2
20190420083052 45 338 0.0 0.0 0.00 0.00 0.00 65 1010.2
20190420081537 43 304 0.0 1.0 0.00 0.00 0.00 74 1010.4
20190420080040 43 338 0.0 4.0 0.00 0.00 0.00 75 1010.4
20190420074545 44 319 1.0 5.0 0.00 0.00 0.00 72 1010.4
20190420073023 47 321 2.0 4.0 0.00 0.00 0.00 64 1010.4
20190420071540 47 69 0.0 2.0 0.00 0.00 0.00 64 1010.4
20190420070018 48 321 1.0 4.0 0.00 0.00 0.00 65 1010.5
20190420064510 46 10 1.0 6.0 0.00 0.00 0.00 68 1010.6
20190420063013 44 332 0.0 4.0 0.00 0.00 0.00 72 1010.6
20190420061549 48 18 0.0 4.0 0.00 0.00 0.00 61 1010.3
20190420060019 52 30 0.0 0.0 0.00 0.00 0.00 50 1010.3
20190420054509 51 32 0.0 2.0 0.00 0.00 0.00 48 1010.3
20190420053021 53 112 0.0 0.0 0.00 0.00 0.00 44 1010.2
20190420051507 54 262 0.0 0.0 0.00 0.00 0.00 51 1010.4
20190420050010 50 47 0.0 0.0 0.00 0.00 0.00 56 1010.4
20190420044516 58 262 0.0 0.0 0.00 0.00 0.00 45 1010.5
20190420043006 57 60 0.0 0.0 0.00 0.00 0.00 41 1010.6
20190420041505 55 64 0.0 0.0 0.00 0.00 0.00 46 1010.6
20190420040007 59 124 0.0 0.0 0.00 0.00 0.00 36 1010.5
20190420034502 60 116 0.0 3.0 0.00 0.00 0.00 37 1010.4
20190420033003 61 86 0.0 0.0 0.00 0.00 0.00 35 1010.4
20190420031501 61 84 0.0 0.0 0.00 0.00 0.00 34 1010.1
20190420024715 62 222 0.0 0.0 0.00 0.00 0.00 34 1009.6
20190419163035 71 113 2.0 6.0 0.00 0.00 0.00 31 1016.7
20190419161529 70 133 3.0 6.0 0.00 0.00 0.00 33 1016.9
20190419160103 69 118 4.0 9.0 0.00 0.00 0.00 33 1017.0
20190419154524 67 139 6.0 10.0 0.00 0.00 0.00 34 1017.2
20190419153016 65 169 6.0 10.0 0.00 0.00 0.00 38 1017.2
20190419151510 62 160 4.0 7.0 0.00 0.00 0.00 60 1017.3
20190419150023 57 148 0.0 2.0 0.00 0.00 0.00 63 1017.5
20190419144858 54 200 0.0 1.0 0.00 0.00 0.00 70 1017.6
20190419143143 50 221 0.0 0.0 0.00 0.00 0.00 81 1017.7
20190419141615 46 195 0.0 1.0 0.00 0.00 0.00 84 1017.7
20190419140218 42 218 0.0 0.0 0.00 0.00 0.00 88 1017.8
20190419134627 39 248 0.0 0.0 0.00 0.00 0.00 89 1017.5
20190419133157 38 248 0.0 0.0 0.00 0.00 0.00 89 1017.3
20190419131650 34 226 0.0 0.0 0.00 0.00 0.00 91 1017.2
20190419130106 33 226 0.0 0.0 0.00 0.00 0.00 89 1017.2
20190419124621 33 226 0.0 0.0 0.00 0.00 0.00 88 1017.0
20190419123123 35 160 0.0 2.0 0.00 0.00 0.00 86 1017.0